createdAt,value
2022-12-14T00:01:41.559Z,98367.56
2022-12-14T00:04:12.320Z,98358.22
2022-12-14T00:06:39.327Z,98358.50
2022-12-14T00:09:06.331Z,98349.94
2022-12-14T00:11:34.499Z,98343.88
2022-12-14T00:14:03.603Z,98350.78
2022-12-14T00:16:32.882Z,98344.47
2022-12-14T00:19:01.321Z,98348.94
2022-12-14T00:21:28.723Z,98346.84
2022-12-14T00:23:57.924Z,98344.09
2022-12-14T00:26:31.372Z,98358.81
2022-12-14T00:29:00.343Z,98353.50
2022-12-14T00:31:28.167Z,98353.38
2022-12-14T00:33:58.607Z,98344.78
2022-12-14T00:36:25.585Z,98352.59
2022-12-14T00:38:52.885Z,98358.88
2022-12-14T00:41:19.867Z,98357.59
2022-12-14T00:43:49.288Z,98359.94
2022-12-14T00:46:18.117Z,98356.72
2022-12-14T00:48:45.974Z,98355.75
2022-12-14T00:51:14.829Z,98361.84
2022-12-14T00:53:44.179Z,98363.50
2022-12-14T00:56:11.365Z,98370.19
2022-12-14T00:58:38.364Z,98366.97
2022-12-14T01:01:08.153Z,98367.63
2022-12-14T01:03:35.363Z,98361.72
2022-12-14T01:06:02.509Z,98364.00
2022-12-14T01:08:36.361Z,98363.94
2022-12-14T01:11:07.383Z,98367.12
2022-12-14T01:13:35.461Z,98359.53
2022-12-14T01:16:08.144Z,98367.91
2022-12-14T01:18:36.666Z,98363.75
2022-12-14T01:21:09.972Z,98377.16
2022-12-14T01:23:38.194Z,98367.84
2022-12-14T01:26:05.199Z,98362.78
2022-12-14T01:28:32.372Z,98363.09
2022-12-14T01:30:59.690Z,98366.88
2022-12-14T01:33:27.000Z,98370.72
2022-12-14T01:35:54.409Z,98364.56
2022-12-14T01:38:21.676Z,98363.47
2022-12-14T01:40:48.689Z,98363.75
2022-12-14T01:43:15.701Z,98352.31
2022-12-14T01:45:43.223Z,98347.87
2022-12-14T01:48:11.863Z,98355.91
2022-12-14T01:50:43.128Z,98350.53
2022-12-14T01:53:14.972Z,98348.03
2022-12-14T01:55:45.252Z,98347.84
2022-12-14T01:58:25.328Z,98341.84
2022-12-14T02:00:57.270Z,98334.53
2022-12-14T02:03:30.924Z,98334.34
2022-12-14T02:06:10.875Z,98335.88
2022-12-14T02:08:38.872Z,98331.97
2022-12-14T02:11:05.940Z,98335.88
2022-12-14T02:13:38.910Z,98327.91
2022-12-14T02:16:06.881Z,98324.78
2022-12-14T02:18:34.028Z,98325.41
2022-12-14T02:21:13.244Z,98328.38
2022-12-14T02:24:17.575Z,98326.16
2022-12-14T02:27:22.888Z,98332.59
2022-12-14T02:30:06.491Z,98331.06
2022-12-14T02:32:52.260Z,98319.91
2022-12-14T02:35:48.503Z,98318.22
2022-12-14T02:38:38.676Z,98317.16
2022-12-14T02:41:11.195Z,98319.16
2022-12-14T02:43:47.394Z,98306.22
2022-12-14T02:46:50.752Z,98310.84
2022-12-14T02:49:42.392Z,98301.28
2022-12-14T02:52:28.675Z,98296.63
2022-12-14T02:55:05.132Z,98304.56
2022-12-14T02:57:56.662Z,98291.22
2022-12-14T03:00:24.835Z,98292.19
2022-12-14T03:02:52.725Z,98290.44
2022-12-14T03:05:19.890Z,98293.53
2022-12-14T03:07:50.899Z,98290.97
2022-12-14T03:10:33.472Z,98285.97
2022-12-14T03:13:28.545Z,98294.19
2022-12-14T03:16:18.637Z,98282.88
2022-12-14T03:18:51.704Z,98281.84
2022-12-14T03:21:22.672Z,98287.06
2022-12-14T03:23:51.212Z,98288.41
2022-12-14T03:26:21.025Z,98289.47
2022-12-14T03:28:58.284Z,98287.84
2022-12-14T03:31:48.950Z,98287.53
2022-12-14T03:34:17.761Z,98276.25
2022-12-14T03:37:02.683Z,98278.75
2022-12-14T03:39:33.307Z,98274.22
2022-12-14T03:42:32.809Z,98271.37
2022-12-14T03:45:21.555Z,98267.88
2022-12-14T03:48:00.512Z,98267.34
2022-12-14T03:50:41.960Z,98271.19
2022-12-14T03:53:16.619Z,98267.12
2022-12-14T03:55:55.142Z,98275.00
2022-12-14T03:58:25.100Z,98265.63
2022-12-14T04:01:00.808Z,98262.75
2022-12-14T04:04:04.947Z,98261.75
2022-12-14T04:06:54.797Z,98253.59
2022-12-14T04:09:34.117Z,98244.81
2022-12-14T04:12:31.198Z,98240.16
2022-12-14T04:15:37.708Z,98240.28
2022-12-14T04:18:26.457Z,98240.78
2022-12-14T04:20:58.164Z,98232.97
2022-12-14T04:24:06.973Z,98230.28
2022-12-14T04:26:38.801Z,98221.44
2022-12-14T04:29:28.510Z,98213.44
2022-12-14T04:32:01.531Z,98212.56
2022-12-14T04:34:30.066Z,98205.94
2022-12-14T04:37:00.041Z,98189.94
2022-12-14T04:39:40.153Z,98195.56
2022-12-14T04:42:11.054Z,98184.81
2022-12-14T04:44:41.865Z,98182.59
2022-12-14T04:47:11.431Z,98199.38
2022-12-14T04:49:53.886Z,98193.13
2022-12-14T04:52:53.031Z,98190.03
2022-12-14T04:55:41.555Z,98199.94
2022-12-14T04:58:27.531Z,98191.88
2022-12-14T05:01:01.530Z,98183.44
2022-12-14T05:03:34.686Z,98187.19
2022-12-14T05:06:14.128Z,98184.66
2022-12-14T05:09:11.764Z,98196.78
2022-12-14T05:11:57.873Z,98190.97
2022-12-14T05:14:39.067Z,98195.37
2022-12-14T05:17:08.748Z,98202.09
2022-12-14T05:19:37.616Z,98200.50
2022-12-14T05:22:07.192Z,98210.34
2022-12-14T05:24:34.343Z,98213.50
2022-12-14T05:27:01.693Z,98199.41
2022-12-14T05:29:28.750Z,98216.00
2022-12-14T05:31:55.776Z,98200.25
2022-12-14T05:34:23.239Z,98203.44
2022-12-14T05:36:50.271Z,98198.62
2022-12-14T05:39:17.376Z,98195.28
2022-12-14T05:41:44.719Z,98181.56
2022-12-14T05:44:11.718Z,98177.28
2022-12-14T05:46:38.726Z,98173.94
2022-12-14T05:49:06.147Z,98179.22
2022-12-14T05:51:33.175Z,98174.16
2022-12-14T05:54:00.191Z,98181.41
2022-12-14T05:56:27.530Z,98174.63
2022-12-14T05:58:54.529Z,98168.47
2022-12-14T06:01:21.681Z,98151.94
2022-12-14T06:03:51.863Z,98147.16
2022-12-14T06:06:18.856Z,98132.53
2022-12-14T06:08:46.463Z,98139.81
2022-12-14T06:11:18.854Z,98133.00
2022-12-14T06:13:46.299Z,98122.69
2022-12-14T06:16:19.423Z,98124.66
2022-12-14T06:18:54.550Z,98128.81
2022-12-14T06:21:24.175Z,98131.56
2022-12-14T06:23:51.199Z,98132.66
2022-12-14T06:26:18.720Z,98148.37
2022-12-14T06:28:46.092Z,98155.87
2022-12-14T06:31:25.363Z,98170.72
2022-12-14T06:33:55.925Z,98158.09
2022-12-14T06:36:26.717Z,98152.06
2022-12-14T06:38:57.543Z,98128.09
2022-12-14T06:41:24.741Z,98132.41
2022-12-14T06:43:53.739Z,98151.75
2022-12-14T06:46:22.753Z,98154.44
2022-12-14T06:48:54.506Z,98157.41
2022-12-14T06:51:22.872Z,98142.75
2022-12-14T06:53:54.423Z,98137.94
2022-12-14T06:56:23.129Z,98140.44
2022-12-14T06:58:50.332Z,98140.19
2022-12-14T07:01:21.854Z,98133.09
2022-12-14T07:03:55.115Z,98143.91
2022-12-14T07:06:23.351Z,98137.00
2022-12-14T07:08:54.105Z,98121.53
2022-12-14T07:11:21.743Z,98126.31
2022-12-14T07:13:49.053Z,98118.47
2022-12-14T07:16:22.660Z,98130.19
2022-12-14T07:18:50.275Z,98122.91
2022-12-14T07:21:18.841Z,98119.41
2022-12-14T07:23:47.273Z,98113.13
2022-12-14T07:26:16.840Z,98109.75
2022-12-14T07:28:45.464Z,98109.97
2022-12-14T07:31:17.760Z,98108.00
2022-12-14T07:33:45.619Z,98109.69
2022-12-14T07:36:18.040Z,98114.94
2022-12-14T07:38:46.887Z,98116.34
2022-12-14T07:41:25.268Z,98125.87
2022-12-14T07:43:54.058Z,98140.16
2022-12-14T07:46:23.865Z,98137.88
2022-12-14T07:48:53.345Z,98130.34
2022-12-14T07:51:25.198Z,98139.66
2022-12-14T07:53:52.621Z,98145.28
2022-12-14T07:56:21.808Z,98140.00
2022-12-14T07:58:49.748Z,98157.47
2022-12-14T08:01:18.413Z,98167.66
2022-12-14T08:03:47.984Z,98162.53
2022-12-14T08:06:16.118Z,98159.28
2022-12-14T08:08:43.243Z,98148.94
2022-12-14T08:11:13.632Z,98138.91
2022-12-14T08:13:40.855Z,98137.53
2022-12-14T08:16:14.004Z,98139.28
2022-12-14T08:18:42.172Z,98133.13
2022-12-14T08:21:10.839Z,98128.09
2022-12-14T08:23:38.213Z,98128.69
2022-12-14T08:26:06.330Z,98141.94
2022-12-14T08:28:34.720Z,98135.06
2022-12-14T08:31:10.413Z,98130.56
2022-12-14T08:33:38.659Z,98122.00
2022-12-14T08:36:09.670Z,98126.25
2022-12-14T08:38:37.591Z,98116.22
2022-12-14T08:41:05.884Z,98098.53
2022-12-14T08:43:33.264Z,98106.84
2022-12-14T08:46:00.780Z,98095.00
2022-12-14T08:48:28.514Z,98112.59
2022-12-14T08:51:01.173Z,98098.31
2022-12-14T08:53:28.913Z,98095.75
2022-12-14T08:55:56.214Z,98095.00
2022-12-14T08:58:23.417Z,98096.84
2022-12-14T09:00:50.764Z,98096.16
2022-12-14T09:03:18.029Z,98087.25
2022-12-14T09:05:45.040Z,98097.97
2022-12-14T09:08:12.331Z,98104.31
2022-12-14T09:10:39.493Z,98096.56
2022-12-14T09:13:06.486Z,98102.03
2022-12-14T09:15:33.817Z,98096.31
2022-12-14T09:18:00.813Z,98099.69
2022-12-14T09:20:30.114Z,98099.75
2022-12-14T09:22:57.560Z,98103.34
2022-12-14T09:25:25.508Z,98098.34
2022-12-14T09:27:52.501Z,98103.31
2022-12-14T09:30:26.166Z,98092.41
2022-12-14T09:32:53.716Z,98085.22
2022-12-14T09:35:20.991Z,98083.31
2022-12-14T09:37:48.011Z,98095.72
2022-12-14T09:40:16.283Z,98085.38
2022-12-14T09:42:59.183Z,98087.63
2022-12-14T09:45:31.084Z,98081.47
2022-12-14T09:48:20.310Z,98076.03
2022-12-14T09:50:54.216Z,98064.06
2022-12-14T09:53:21.462Z,98056.28
2022-12-14T09:55:50.985Z,98055.03
2022-12-14T09:58:28.088Z,98047.25
2022-12-14T10:01:37.887Z,98026.87
2022-12-14T10:04:32.737Z,98032.00
2022-12-14T10:07:12.445Z,98025.44
2022-12-14T10:10:12.219Z,98035.09
2022-12-14T10:12:50.544Z,98045.09
2022-12-14T10:15:36.765Z,98039.00
2022-12-14T10:18:27.519Z,98049.19
2022-12-14T10:21:15.155Z,98024.91
2022-12-14T10:23:52.916Z,98011.37
2022-12-14T10:26:23.155Z,98010.56
2022-12-14T10:29:01.189Z,98012.69
2022-12-14T10:31:50.835Z,98012.13
2022-12-14T10:34:21.015Z,98020.66
2022-12-14T10:36:55.162Z,98015.78
2022-12-14T10:39:30.196Z,98000.44
2022-12-14T10:42:03.152Z,97986.25
2022-12-14T10:44:49.498Z,97983.94
2022-12-14T10:47:34.719Z,97976.56
2022-12-14T10:50:18.804Z,97982.38
2022-12-14T10:52:49.180Z,97977.31
2022-12-14T10:55:19.637Z,97977.91
2022-12-14T10:57:47.142Z,97971.19
2022-12-14T11:00:23.216Z,97975.50
2022-12-14T11:02:54.839Z,97987.00
2022-12-14T11:05:51.825Z,97988.78
2022-12-14T11:08:38.080Z,97990.59
2022-12-14T11:11:25.565Z,97981.47
2022-12-14T11:14:10.025Z,97977.97
2022-12-14T11:16:39.441Z,97979.72
2022-12-14T11:19:22.897Z,97965.87
2022-12-14T11:22:04.703Z,97971.69
2022-12-14T11:24:32.242Z,97957.09
2022-12-14T11:27:01.563Z,97953.59
2022-12-14T11:29:38.128Z,97952.34
2022-12-14T11:32:06.257Z,97943.31
2022-12-14T11:34:39.203Z,97943.41
2022-12-14T11:37:14.396Z,97944.31
2022-12-14T11:39:42.727Z,97938.81
2022-12-14T11:42:19.036Z,97924.16
2022-12-14T11:44:48.294Z,97918.75
2022-12-14T11:47:23.827Z,97919.38
2022-12-14T11:49:55.724Z,97922.59
2022-12-14T11:52:43.764Z,97918.97
2022-12-14T11:55:23.020Z,97913.25
2022-12-14T11:57:58.665Z,97900.13
2022-12-14T12:00:36.187Z,97893.22
2022-12-14T12:03:13.283Z,97884.19
2022-12-14T12:05:42.775Z,97878.34
2022-12-14T12:08:20.773Z,97900.34
2022-12-14T12:10:50.586Z,97893.75
2022-12-14T12:13:31.670Z,97889.25
2022-12-14T12:16:06.382Z,97873.63
2022-12-14T12:19:12.640Z,97881.09
2022-12-14T12:21:41.837Z,97872.56
2022-12-14T12:25:16.787Z,97868.22
2022-12-14T12:27:38.543Z,97867.84
2022-12-14T12:30:21.842Z,97866.97
2022-12-14T12:32:52.471Z,97849.88
2022-12-14T12:35:51.823Z,97843.03
2022-12-14T12:38:38.934Z,97849.78
2022-12-14T12:41:20.402Z,97845.72
2022-12-14T12:44:01.499Z,97835.59
2022-12-14T12:46:31.702Z,97829.19
2022-12-14T12:49:04.895Z,97838.81
2022-12-14T12:52:03.721Z,97837.19
2022-12-14T12:55:03.884Z,97848.38
2022-12-14T12:57:36.468Z,97836.03
2022-12-14T13:00:06.351Z,97832.91
2022-12-14T13:02:42.702Z,97826.03
2022-12-14T13:05:45.658Z,97813.34
2022-12-14T13:08:28.972Z,97830.88
2022-12-14T13:11:25.085Z,97810.84
2022-12-14T13:13:57.714Z,97810.12
2022-12-14T13:16:32.578Z,97811.06
2022-12-14T13:19:25.406Z,97814.91
2022-12-14T13:21:54.543Z,97812.25
2022-12-14T13:24:23.785Z,97815.47
2022-12-14T13:27:16.941Z,97803.72
2022-12-14T13:30:25.327Z,97799.94
2022-12-14T13:33:23.488Z,97798.56
2022-12-14T13:36:28.161Z,97801.19
2022-12-14T13:38:57.830Z,97791.31
2022-12-14T13:41:34.027Z,97784.78
2022-12-14T13:44:43.541Z,97775.06
2022-12-14T13:47:21.981Z,97780.00
2022-12-14T13:52:48.130Z,97773.41
2022-12-14T13:55:34.926Z,97752.53
2022-12-14T13:58:08.302Z,97751.34
2022-12-14T14:00:44.240Z,97754.75
2022-12-14T14:03:37.332Z,97746.66
2022-12-14T14:06:16.807Z,97752.09
2022-12-14T14:08:45.973Z,97752.28
2022-12-14T14:11:38.356Z,97762.66
2022-12-14T14:14:22.491Z,97756.56
2022-12-14T14:16:57.815Z,97759.59
2022-12-14T14:19:26.444Z,97755.03
2022-12-14T14:24:57.990Z,97754.84
2022-12-14T14:27:42.030Z,97753.00
2022-12-14T14:30:28.070Z,97746.56
2022-12-14T14:33:07.493Z,97739.03
2022-12-14T14:35:40.811Z,97735.00
2022-12-14T14:38:24.273Z,97738.00
2022-12-14T14:43:54.307Z,97724.50
2022-12-14T14:46:33.441Z,97734.53
2022-12-14T14:49:00.559Z,97740.13
2022-12-14T14:51:30.591Z,97727.06
2022-12-14T14:54:37.578Z,97722.37
2022-12-14T14:57:03.807Z,97727.59
2022-12-14T14:59:43.938Z,97726.62
2022-12-14T15:02:31.487Z,97729.00
2022-12-14T15:05:17.511Z,97737.00
2022-12-14T15:07:46.392Z,97735.16
2022-12-14T15:10:22.842Z,97738.00
2022-12-14T15:12:53.952Z,97744.16
2022-12-14T15:15:26.187Z,97752.44
2022-12-14T15:17:53.713Z,97739.19
2022-12-14T15:20:23.782Z,97741.50
2022-12-14T15:22:52.615Z,97744.50
2022-12-14T15:25:28.094Z,97749.28
2022-12-14T15:27:56.337Z,97744.47
2022-12-14T15:30:28.328Z,97740.09
2022-12-14T15:33:10.123Z,97741.22
2022-12-14T15:35:42.743Z,97727.25
2022-12-14T15:38:19.309Z,97721.37
2022-12-14T15:41:01.948Z,97725.44
2022-12-14T15:43:29.498Z,97728.28
2022-12-14T15:46:04.063Z,97724.31
2022-12-14T15:48:34.482Z,97727.97
2022-12-14T15:51:04.759Z,97730.34
2022-12-14T15:53:37.657Z,97721.34
2022-12-14T15:56:34.687Z,97729.50
2022-12-14T15:59:06.286Z,97719.94
2022-12-14T16:01:43.433Z,97727.72
2022-12-14T16:04:16.302Z,97725.47
2022-12-14T16:06:49.523Z,97717.59
2022-12-14T16:09:24.902Z,97722.81
2022-12-14T16:11:56.518Z,97709.63
2022-12-14T16:14:44.131Z,97696.19
2022-12-14T16:17:18.522Z,97693.63
2022-12-14T16:20:02.500Z,97695.38
2022-12-14T16:22:32.077Z,97686.44
2022-12-14T16:25:08.112Z,97676.34
2022-12-14T16:27:43.114Z,97667.13
2022-12-14T16:30:19.124Z,97659.31
2022-12-14T16:32:50.359Z,97655.19
2022-12-14T16:35:23.530Z,97641.34
2022-12-14T16:37:58.068Z,97647.47
2022-12-14T16:40:36.394Z,97647.38
2022-12-14T16:43:05.121Z,97648.78
2022-12-14T16:45:41.238Z,97649.59
2022-12-14T16:48:14.851Z,97653.59
2022-12-14T16:51:03.678Z,97657.56
2022-12-14T16:53:29.694Z,97647.66
2022-12-14T16:56:05.525Z,97644.34
2022-12-14T16:58:33.458Z,97644.53
2022-12-14T17:01:03.910Z,97646.56
2022-12-14T17:03:31.931Z,97649.62
2022-12-14T17:06:02.116Z,97658.97
2022-12-14T17:08:29.654Z,97644.09
2022-12-14T17:10:57.720Z,97639.53
2022-12-14T17:13:24.764Z,97633.28
2022-12-14T17:16:06.673Z,97648.69
2022-12-14T17:18:40.996Z,97643.72
2022-12-14T17:21:17.761Z,97636.19
2022-12-14T17:23:45.626Z,97643.16
2022-12-14T17:26:33.144Z,97646.44
2022-12-14T17:29:00.178Z,97656.16
2022-12-14T17:31:28.512Z,97656.00
2022-12-14T17:33:56.978Z,97661.03
2022-12-14T17:36:28.153Z,97664.62
2022-12-14T17:38:55.454Z,97670.66
2022-12-14T17:41:26.346Z,97669.94
2022-12-14T17:43:57.429Z,97680.84
2022-12-14T17:46:25.983Z,97680.03
2022-12-14T17:48:53.795Z,97676.00
2022-12-14T17:51:30.066Z,97673.06
2022-12-14T17:54:01.233Z,97665.09
2022-12-14T17:56:28.304Z,97675.00
2022-12-14T17:58:55.307Z,97669.41
2022-12-14T18:01:24.364Z,97670.59
2022-12-14T18:03:52.238Z,97661.81
2022-12-14T18:06:19.800Z,97652.00
2022-12-14T18:08:48.745Z,97650.97
2022-12-14T18:11:21.764Z,97642.91
2022-12-14T18:13:49.212Z,97644.09
2022-12-14T18:16:36.546Z,97639.88
2022-12-14T18:19:23.335Z,97644.94
2022-12-14T18:21:50.611Z,97648.13
2022-12-14T18:24:24.195Z,97637.09
2022-12-14T18:26:53.097Z,97634.91
2022-12-14T18:29:20.613Z,97626.59
2022-12-14T18:31:49.662Z,97627.94
2022-12-14T18:34:17.385Z,97629.78
2022-12-14T18:36:44.375Z,97624.81
2022-12-14T18:39:11.354Z,97619.12
2022-12-14T18:41:38.642Z,97624.28
2022-12-14T18:44:05.720Z,97619.59
2022-12-14T18:46:32.883Z,97616.41
2022-12-14T18:49:00.308Z,97614.69
2022-12-14T18:51:27.408Z,97622.41
2022-12-14T18:53:56.534Z,97621.50
2022-12-14T18:56:25.314Z,97620.50
2022-12-14T18:58:52.743Z,97615.44
2022-12-14T19:01:22.159Z,97613.97
2022-12-14T19:03:52.389Z,97620.50
2022-12-14T19:09:12.457Z,97602.88
2022-12-14T19:11:41.779Z,97610.22
2022-12-14T19:14:09.548Z,97612.31
2022-12-14T19:16:37.209Z,97623.25
2022-12-14T19:19:04.287Z,97615.97
2022-12-14T19:21:31.569Z,97606.06
2022-12-14T19:23:59.853Z,97611.69
2022-12-14T19:26:28.515Z,97611.16
2022-12-14T19:28:55.931Z,97616.44
2022-12-14T19:31:23.431Z,97613.25
2022-12-14T19:33:50.518Z,97605.63
2022-12-14T19:36:17.512Z,97600.84
2022-12-14T19:38:45.036Z,97602.41
2022-12-14T19:41:17.861Z,97604.03
2022-12-14T19:43:45.214Z,97606.97
2022-12-14T19:46:13.974Z,97601.00
2022-12-14T19:48:42.263Z,97581.66
2022-12-14T19:51:12.199Z,97576.38
2022-12-14T19:53:40.210Z,97571.84
2022-12-14T19:56:07.854Z,97574.41
2022-12-14T19:58:35.669Z,97571.38
2022-12-14T20:01:08.318Z,97576.41
2022-12-14T20:03:36.113Z,97572.28
2022-12-14T20:06:04.928Z,97579.28
2022-12-14T20:08:33.149Z,97574.97
2022-12-14T20:11:05.261Z,97564.59
2022-12-14T20:13:32.721Z,97565.84
2022-12-14T20:16:00.522Z,97567.19
2022-12-14T20:18:28.640Z,97569.56
2022-12-14T20:21:07.051Z,97572.50
2022-12-14T20:23:36.596Z,97566.59
2022-12-14T20:26:08.172Z,97551.19
2022-12-14T20:28:35.724Z,97555.28
2022-12-14T20:31:05.957Z,97558.41
2022-12-14T20:33:33.746Z,97555.09
2022-12-14T20:36:01.435Z,97554.03
2022-12-14T20:38:28.519Z,97548.31
2022-12-14T20:40:55.667Z,97546.13
2022-12-14T20:43:22.919Z,97544.91
2022-12-14T20:45:49.962Z,97535.88
2022-12-14T20:48:16.963Z,97539.03
2022-12-14T20:50:44.388Z,97538.03
2022-12-14T20:53:18.158Z,97541.78
2022-12-14T20:55:45.432Z,97544.63
2022-12-14T20:58:13.928Z,97537.00
2022-12-14T21:00:41.018Z,97541.41
2022-12-14T21:03:08.533Z,97555.75
2022-12-14T21:05:42.113Z,97557.41
2022-12-14T21:08:09.816Z,97548.03
2022-12-14T21:10:38.882Z,97537.44
2022-12-14T21:13:07.775Z,97529.44
2022-12-14T21:15:35.650Z,97532.94
2022-12-14T21:18:05.341Z,97550.00
2022-12-14T21:20:32.381Z,97552.59
2022-12-14T21:22:59.656Z,97560.41
2022-12-14T21:25:26.748Z,97560.81
2022-12-14T21:27:53.724Z,97539.13
2022-12-14T21:30:21.036Z,97532.22
2022-12-14T21:32:48.081Z,97548.34
2022-12-14T21:35:18.379Z,97554.63
2022-12-14T21:37:45.737Z,97568.03
2022-12-14T21:40:32.858Z,97566.03
2022-12-14T21:43:00.160Z,97566.56
2022-12-14T21:45:27.238Z,97574.66
2022-12-14T21:47:54.363Z,97575.44
2022-12-14T21:50:21.626Z,97565.44
2022-12-14T21:52:48.593Z,97571.22
2022-12-14T21:55:15.687Z,97582.34
2022-12-14T21:58:01.327Z,97562.28
2022-12-14T22:00:28.293Z,97561.59
2022-12-14T22:02:55.619Z,97562.66
2022-12-14T22:05:22.723Z,97563.06
2022-12-14T22:07:49.715Z,97559.78
2022-12-14T22:10:22.801Z,97568.63
2022-12-14T22:12:51.690Z,97579.03
2022-12-14T22:15:18.973Z,97589.97
2022-12-14T22:17:45.957Z,97592.63
2022-12-14T22:20:13.191Z,97601.78
2022-12-14T22:22:40.546Z,97596.22
2022-12-14T22:25:10.284Z,97605.78
2022-12-14T22:27:37.372Z,97608.16
2022-12-14T22:30:05.420Z,97608.28
2022-12-14T22:32:32.722Z,97611.66
2022-12-14T22:34:59.876Z,97617.56
2022-12-14T22:37:27.162Z,97619.16
2022-12-14T22:39:54.157Z,97616.41
2022-12-14T22:42:21.159Z,97601.69
2022-12-14T22:44:49.087Z,97607.59
2022-12-14T22:47:16.111Z,97606.94
2022-12-14T22:49:43.349Z,97596.22
2022-12-14T22:52:10.676Z,97583.88
2022-12-14T22:54:39.179Z,97584.06
2022-12-14T22:57:09.713Z,97592.63
2022-12-14T22:59:41.760Z,97604.03
2022-12-14T23:02:09.004Z,97597.53
2022-12-14T23:04:37.456Z,97592.19
2022-12-14T23:07:04.882Z,97593.34
2022-12-14T23:09:50.794Z,97594.34
2022-12-14T23:12:36.592Z,97590.44
2022-12-14T23:15:22.546Z,97583.66
2022-12-14T23:18:08.495Z,97597.88
2022-12-14T23:20:57.679Z,97592.72
2022-12-14T23:23:43.574Z,97605.78
2022-12-14T23:26:29.061Z,97613.41
2022-12-14T23:29:14.860Z,97606.84
2022-12-14T23:32:00.898Z,97605.09
2022-12-14T23:34:47.928Z,97617.13
2022-12-14T23:37:33.561Z,97607.37
2022-12-14T23:40:19.490Z,97609.50
2022-12-14T23:43:05.264Z,97610.97
2022-12-14T23:45:51.246Z,97627.41
2022-12-14T23:48:36.614Z,97616.28
2022-12-14T23:51:22.499Z,97609.47
2022-12-14T23:54:07.920Z,97617.53
2022-12-14T23:56:53.699Z,97618.50
2022-12-14T23:59:39.615Z,97625.38
